Time;durP1;ratioP1;P1;durP2;ratioP2;P2;SDS_P1;SDS_P2;PMS_P1;PMS_P2;Temp;Humidity;BMP_temperature;BMP_pressure;BME280_temperature;BME280_humidity;BME280_pressure;Samples;Min_cycle;Max_cycle;Signal;HPM_P1;HPM_P2
2023/12/09 00:01:23;;;;;;;96.47;30.63;;;;;;;;;;4876199;29;20060;-64
2023/12/09 00:03:49;;;;;;;90.63;32.40;;;;;;;;;;4875634;29;20049;-64
2023/12/09 00:06:15;;;;;;;75.70;28.67;;;;;;;;;;4874768;29;20599;-64
2023/12/09 00:08:41;;;;;;;83.17;29.77;;;;;;;;;;4874165;29;20059;-64
2023/12/09 00:11:07;;;;;;;80.23;29.20;;;;;;;;;;4870923;29;20041;-64
2023/12/09 00:13:33;;;;;;;80.93;29.47;;;;;;;;;;4875458;29;20049;-64
2023/12/09 00:16:00;;;;;;;78.03;28.30;;;;;;;;;;4876065;29;20412;-63
2023/12/09 00:18:26;;;;;;;81.73;30.43;;;;;;;;;;4874849;29;20184;-64
2023/12/09 00:20:52;;;;;;;80.23;28.87;;;;;;;;;;4873769;29;20045;-64
2023/12/09 00:23:18;;;;;;;74.07;28.60;;;;;;;;;;4874086;29;20063;-64
2023/12/09 00:25:44;;;;;;;74.97;28.07;;;;;;;;;;4875835;29;20160;-64
2023/12/09 00:28:10;;;;;;;82.83;30.23;;;;;;;;;;4873452;29;20071;-64
2023/12/09 00:30:36;;;;;;;73.60;29.73;;;;;;;;;;4875706;29;20512;-64
2023/12/09 00:33:02;;;;;;;83.30;29.70;;;;;;;;;;4874845;29;20053;-64
2023/12/09 00:35:28;;;;;;;71.90;28.70;;;;;;;;;;4875861;29;20715;-64
2023/12/09 00:37:54;;;;;;;70.63;28.60;;;;;;;;;;4874836;29;20041;-64
2023/12/09 00:40:21;;;;;;;80.37;30.93;;;;;;;;;;4873581;29;20423;-64
2023/12/09 00:42:47;;;;;;;73.17;28.33;;;;;;;;;;4875430;29;20103;-64
2023/12/09 00:45:14;;;;;;;82.93;28.33;;;;;;;;;;4874740;29;20530;-64
2023/12/09 00:47:40;;;;;;;80.10;30.27;;;;;;;;;;4873903;29;20053;-64
2023/12/09 00:50:06;;;;;;;86.17;29.47;;;;;;;;;;4875657;29;20053;-64
2023/12/09 00:52:32;;;;;;;82.53;28.00;;;;;;;;;;4874651;29;20135;-64
2023/12/09 00:54:58;;;;;;;76.70;28.07;;;;;;;;;;4874787;29;20113;-64
2023/12/09 00:57:24;;;;;;;80.67;28.87;;;;;;;;;;4874124;29;20052;-64
2023/12/09 00:59:50;;;;;;;75.73;27.80;;;;;;;;;;4875105;29;20060;-64
2023/12/09 01:02:16;;;;;;;85.07;29.90;;;;;;;;;;4874725;29;20045;-64
2023/12/09 01:04:43;;;;;;;81.57;28.87;;;;;;;;;;4874006;29;20071;-64
2023/12/09 01:07:09;;;;;;;89.67;31.30;;;;;;;;;;4874055;29;20131;-64
2023/12/09 01:09:35;;;;;;;68.30;27.63;;;;;;;;;;4874353;29;20158;-64
2023/12/09 01:12:01;;;;;;;74.20;28.27;;;;;;;;;;4874983;29;20067;-64
2023/12/09 01:14:28;;;;;;;80.63;28.63;;;;;;;;;;4874578;29;20193;-64
2023/12/09 01:16:54;;;;;;;61.47;26.33;;;;;;;;;;4873933;29;20056;-64
2023/12/09 01:19:20;;;;;;;71.33;27.73;;;;;;;;;;4874124;29;20063;-64
2023/12/09 01:21:46;;;;;;;73.40;29.77;;;;;;;;;;4874766;29;20113;-64
2023/12/09 01:24:12;;;;;;;71.03;29.73;;;;;;;;;;4872056;29;20088;-63
2023/12/09 01:26:38;;;;;;;90.33;28.30;;;;;;;;;;4871166;29;20461;-64
2023/12/09 01:29:04;;;;;;;79.93;27.90;;;;;;;;;;4872046;29;20196;-64
2023/12/09 01:31:30;;;;;;;77.40;29.30;;;;;;;;;;4873876;29;20503;-64
2023/12/09 01:33:57;;;;;;;72.47;27.63;;;;;;;;;;4872609;29;20052;-64
2023/12/09 01:36:23;;;;;;;84.27;30.67;;;;;;;;;;4873363;29;20048;-64
2023/12/09 01:38:49;;;;;;;73.60;26.67;;;;;;;;;;4873623;29;20056;-64
2023/12/09 01:41:15;;;;;;;86.13;26.00;;;;;;;;;;4872635;29;20053;-64
2023/12/09 01:43:42;;;;;;;76.73;28.50;;;;;;;;;;4873558;29;20482;-63
2023/12/09 01:46:10;;;;;;;68.43;26.80;;;;;;;;;;4874263;29;20181;-64
2023/12/09 01:48:37;;;;;;;78.70;27.50;;;;;;;;;;4872797;29;20049;-64
2023/12/09 01:51:04;;;;;;;68.87;26.07;;;;;;;;;;4874967;29;20057;-64
2023/12/09 01:53:30;;;;;;;66.87;26.17;;;;;;;;;;4872739;29;20052;-64
2023/12/09 01:56:02;;;;;;;76.87;26.90;;;;;;;;;;4874640;29;20080;-64
2023/12/09 01:58:27;;;;;;;73.30;27.93;;;;;;;;;;4874010;29;20139;-64
2023/12/09 02:00:54;;;;;;;64.23;25.47;;;;;;;;;;4874764;29;20749;-64
2023/12/09 02:03:20;;;;;;;70.87;26.80;;;;;;;;;;4873974;29;20045;-64
2023/12/09 02:05:46;;;;;;;60.10;25.43;;;;;;;;;;4865614;29;20053;-64
2023/12/09 02:08:12;;;;;;;69.93;26.80;;;;;;;;;;4866791;29;20056;-64
2023/12/09 02:10:39;;;;;;;79.10;26.67;;;;;;;;;;4873954;29;20048;-64
2023/12/09 02:13:14;;;;;;;63.70;24.80;;;;;;;;;;4874477;29;20045;-64
2023/12/09 02:15:42;;;;;;;69.50;25.47;;;;;;;;;;4873261;29;20045;-64
2023/12/09 02:18:08;;;;;;;67.90;25.27;;;;;;;;;;4874067;29;20049;-64
2023/12/09 02:20:35;;;;;;;63.93;24.60;;;;;;;;;;4874402;29;20045;-64
2023/12/09 02:23:03;;;;;;;64.57;26.93;;;;;;;;;;4873906;29;20065;-64
2023/12/09 02:25:29;;;;;;;68.43;24.73;;;;;;;;;;4874236;29;20061;-64
2023/12/09 02:27:58;;;;;;;69.37;24.60;;;;;;;;;;4873390;29;20531;-64
2023/12/09 02:30:24;;;;;;;72.00;24.67;;;;;;;;;;4874312;29;20393;-64
2023/12/09 02:32:50;;;;;;;65.53;26.23;;;;;;;;;;4873703;29;20061;-64
2023/12/09 02:35:17;;;;;;;63.83;23.77;;;;;;;;;;4874301;29;20048;-64
2023/12/09 02:37:44;;;;;;;67.93;24.83;;;;;;;;;;4873283;29;20064;-64
2023/12/09 02:40:10;;;;;;;69.77;23.30;;;;;;;;;;4874325;29;20097;-64
2023/12/09 02:42:39;;;;;;;71.00;23.30;;;;;;;;;;4876798;29;20396;-64
2023/12/09 02:45:06;;;;;;;63.97;23.27;;;;;;;;;;4876724;29;20144;-64
2023/12/09 02:47:32;;;;;;;65.13;22.83;;;;;;;;;;4876931;29;20041;-64
2023/12/09 02:49:58;;;;;;;67.00;23.83;;;;;;;;;;4877052;29;20056;-64
2023/12/09 02:52:24;;;;;;;62.53;22.87;;;;;;;;;;4876304;29;20526;-64
2023/12/09 02:54:50;;;;;;;64.83;25.00;;;;;;;;;;4877857;29;20045;-63
2023/12/09 02:57:16;;;;;;;70.30;24.17;;;;;;;;;;4876640;29;20052;-64
2023/12/09 02:59:42;;;;;;;62.40;22.60;;;;;;;;;;4877531;29;20045;-64
2023/12/09 03:02:08;;;;;;;67.30;24.73;;;;;;;;;;4875736;29;20060;-64
2023/12/09 03:04:34;;;;;;;68.63;23.83;;;;;;;;;;4875386;29;20052;-64
2023/12/09 03:07:00;;;;;;;63.33;24.13;;;;;;;;;;4876198;29;20045;-64
2023/12/09 03:09:26;;;;;;;67.00;22.60;;;;;;;;;;4877104;29;20045;-64
2023/12/09 03:11:52;;;;;;;57.50;20.93;;;;;;;;;;4876214;29;20523;-63
2023/12/09 03:14:18;;;;;;;58.83;22.87;;;;;;;;;;4876634;29;20056;-64
2023/12/09 03:16:44;;;;;;;60.20;22.17;;;;;;;;;;4875682;29;20117;-64
2023/12/09 03:19:10;;;;;;;64.33;22.43;;;;;;;;;;4877065;29;20595;-64
2023/12/09 03:21:37;;;;;;;64.70;21.60;;;;;;;;;;4876180;29;20056;-64
2023/12/09 03:24:03;;;;;;;62.63;20.67;;;;;;;;;;4875589;29;20060;-63
2023/12/09 03:26:29;;;;;;;48.50;21.57;;;;;;;;;;4875880;29;20088;-64
2023/12/09 03:28:55;;;;;;;59.93;21.97;;;;;;;;;;4875959;29;20608;-64
2023/12/09 03:31:21;;;;;;;67.13;23.43;;;;;;;;;;4875966;29;20409;-64
2023/12/09 03:33:47;;;;;;;46.97;20.97;;;;;;;;;;4874545;29;20084;-64
2023/12/09 03:36:13;;;;;;;63.23;21.13;;;;;;;;;;4875659;29;20584;-64
2023/12/09 03:38:39;;;;;;;67.20;21.40;;;;;;;;;;4873938;29;20049;-64
2023/12/09 03:41:05;;;;;;;56.13;20.83;;;;;;;;;;4874128;29;20048;-63
2023/12/09 03:43:32;;;;;;;63.87;20.27;;;;;;;;;;4874983;29;20052;-64
2023/12/09 03:46:01;;;;;;;64.23;20.23;;;;;;;;;;4875221;29;20055;-63
2023/12/09 03:48:28;;;;;;;61.33;22.30;;;;;;;;;;4866288;29;20644;-64
2023/12/09 03:50:54;;;;;;;57.33;20.43;;;;;;;;;;4866294;29;20049;-64
2023/12/09 03:53:20;;;;;;;51.47;19.60;;;;;;;;;;4874645;29;20060;-64
2023/12/09 03:55:46;;;;;;;59.10;20.83;;;;;;;;;;4874650;29;20045;-64
2023/12/09 03:58:12;;;;;;;58.17;18.83;;;;;;;;;;4874966;29;20125;-64
2023/12/09 04:00:39;;;;;;;51.27;19.87;;;;;;;;;;4875127;29;20124;-63
2023/12/09 04:03:05;;;;;;;53.63;19.33;;;;;;;;;;4875797;29;20077;-64
2023/12/09 04:05:31;;;;;;;58.50;19.37;;;;;;;;;;4874464;29;20084;-64
2023/12/09 04:07:57;;;;;;;52.47;17.93;;;;;;;;;;4874695;29;20052;-64
2023/12/09 04:10:23;;;;;;;67.30;20.13;;;;;;;;;;4872208;29;20512;-63
2023/12/09 04:12:49;;;;;;;56.53;19.63;;;;;;;;;;4874563;29;20049;-64
2023/12/09 04:15:15;;;;;;;58.97;18.63;;;;;;;;;;4874403;29;20049;-64
2023/12/09 04:17:41;;;;;;;52.43;19.17;;;;;;;;;;4868349;29;20136;-64
2023/12/09 04:20:08;;;;;;;53.80;17.60;;;;;;;;;;4861183;29;20112;-64
2023/12/09 04:22:38;;;;;;;59.60;19.03;;;;;;;;;;4869907;29;20469;-64
2023/12/09 04:25:04;;;;;;;51.60;20.07;;;;;;;;;;4875919;29;20500;-63
2023/12/09 04:27:32;;;;;;;54.27;18.53;;;;;;;;;;4875000;29;20072;-64
2023/12/09 04:29:58;;;;;;;55.70;19.07;;;;;;;;;;4876199;29;20476;-63
2023/12/09 04:32:24;;;;;;;56.77;18.67;;;;;;;;;;4874439;29;20041;-64
2023/12/09 04:34:50;;;;;;;48.83;17.00;;;;;;;;;;4873058;29;20110;-64
2023/12/09 04:37:16;;;;;;;63.47;20.03;;;;;;;;;;4867435;29;20132;-64
2023/12/09 04:39:42;;;;;;;56.47;19.20;;;;;;;;;;4874866;29;20529;-64
2023/12/09 04:42:08;;;;;;;59.60;19.53;;;;;;;;;;4874412;29;20594;-64
2023/12/09 04:44:34;;;;;;;48.30;18.03;;;;;;;;;;4874828;29;20056;-64
2023/12/09 04:47:00;;;;;;;53.83;19.10;;;;;;;;;;4875558;29;20044;-64
2023/12/09 04:49:26;;;;;;;47.50;18.50;;;;;;;;;;4874856;29;20117;-64
2023/12/09 04:51:52;;;;;;;60.00;19.47;;;;;;;;;;4875305;29;20053;-63
2023/12/09 04:54:18;;;;;;;49.80;17.60;;;;;;;;;;4874670;29;20823;-64
2023/12/09 04:56:44;;;;;;;60.47;18.37;;;;;;;;;;4873073;29;20105;-64
2023/12/09 04:59:10;;;;;;;60.13;18.00;;;;;;;;;;4875313;29;20561;-64
2023/12/09 05:01:36;;;;;;;50.30;19.33;;;;;;;;;;4874548;29;20051;-64
2023/12/09 05:04:02;;;;;;;52.10;19.63;;;;;;;;;;4874853;29;20140;-64
2023/12/09 05:06:28;;;;;;;51.27;17.63;;;;;;;;;;4869760;29;20173;-64
2023/12/09 05:08:54;;;;;;;48.70;18.67;;;;;;;;;;4867769;29;20041;-64
2023/12/09 05:11:20;;;;;;;52.40;18.87;;;;;;;;;;4868470;29;20052;-63
2023/12/09 05:13:46;;;;;;;46.70;18.90;;;;;;;;;;4868011;29;20144;-63
2023/12/09 05:16:12;;;;;;;52.70;19.97;;;;;;;;;;4868180;29;20045;-63
2023/12/09 05:18:38;;;;;;;46.93;18.77;;;;;;;;;;4867556;29;20045;-63
2023/12/09 05:21:07;;;;;;;62.70;20.60;;;;;;;;;;4867842;29;20126;-63
2023/12/09 05:23:34;;;;;;;47.97;20.03;;;;;;;;;;4868220;29;20061;-64
2023/12/09 05:26:00;;;;;;;51.90;20.53;;;;;;;;;;4868318;29;20061;-64
2023/12/09 05:28:26;;;;;;;54.33;20.23;;;;;;;;;;4871347;29;20052;-63
2023/12/09 05:30:52;;;;;;;66.37;21.43;;;;;;;;;;4873213;29;21139;-63
2023/12/09 05:33:18;;;;;;;54.00;19.93;;;;;;;;;;4867269;29;20053;-63
2023/12/09 05:35:44;;;;;;;51.67;19.57;;;;;;;;;;4874075;29;20045;-64
2023/12/09 05:38:10;;;;;;;53.00;19.57;;;;;;;;;;4873075;29;20136;-64
2023/12/09 05:40:37;;;;;;;49.43;19.40;;;;;;;;;;4873417;29;20186;-64
2023/12/09 05:43:03;;;;;;;57.00;20.70;;;;;;;;;;4887992;29;20063;-64
2023/12/09 05:45:29;;;;;;;58.07;19.60;;;;;;;;;;4873112;29;20089;-63
2023/12/09 05:47:56;;;;;;;64.97;21.97;;;;;;;;;;4873591;29;20508;-64
2023/12/09 05:50:22;;;;;;;43.93;18.00;;;;;;;;;;4873326;29;20537;-63
2023/12/09 05:52:48;;;;;;;46.83;19.10;;;;;;;;;;4873176;29;20052;-63
2023/12/09 05:55:17;;;;;;;64.57;21.33;;;;;;;;;;4873943;29;20531;-64
2023/12/09 05:57:44;;;;;;;47.20;17.93;;;;;;;;;;4873310;29;20049;-63
2023/12/09 06:00:11;;;;;;;57.53;18.10;;;;;;;;;;4872963;29;20545;-64
2023/12/09 06:02:39;;;;;;;52.63;18.30;;;;;;;;;;4873959;29;20056;-63
2023/12/09 06:05:06;;;;;;;48.70;19.17;;;;;;;;;;4873101;29;20060;-63
2023/12/09 06:07:32;;;;;;;45.57;17.83;;;;;;;;;;4874127;29;20045;-63
2023/12/09 06:09:58;;;;;;;44.40;17.00;;;;;;;;;;4870501;29;20063;-63
2023/12/09 06:12:24;;;;;;;47.47;19.40;;;;;;;;;;4872543;29;20504;-63
2023/12/09 06:14:51;;;;;;;49.90;18.27;;;;;;;;;;4873277;29;20318;-63
2023/12/09 06:17:17;;;;;;;45.17;18.40;;;;;;;;;;4876768;29;20084;-64
2023/12/09 06:19:44;;;;;;;44.60;18.20;;;;;;;;;;4876066;29;20468;-63
2023/12/09 06:22:10;;;;;;;44.00;16.57;;;;;;;;;;4840946;29;1057259;-63
2023/12/09 06:24:36;;;;;;;52.90;16.87;;;;;;;;;;4877143;29;20079;-63
2023/12/09 06:27:03;;;;;;;56.00;17.17;;;;;;;;;;4877274;29;20503;-63
2023/12/09 06:29:28;;;;;;;50.13;17.23;;;;;;;;;;4875961;29;20537;-63
2023/12/09 06:31:55;;;;;;;46.63;15.80;;;;;;;;;;4877746;29;20157;-63
2023/12/09 06:34:21;;;;;;;44.20;17.63;;;;;;;;;;4877064;29;20595;-64
2023/12/09 06:36:47;;;;;;;47.93;17.30;;;;;;;;;;4877591;29;20056;-63
2023/12/09 06:39:13;;;;;;;52.93;19.13;;;;;;;;;;4876794;29;20049;-63
2023/12/09 06:41:40;;;;;;;55.93;18.40;;;;;;;;;;4875399;29;20053;-63
2023/12/09 06:44:06;;;;;;;51.90;18.03;;;;;;;;;;4876307;29;20192;-63
2023/12/09 06:46:32;;;;;;;47.37;17.43;;;;;;;;;;4877470;29;20053;-63
2023/12/09 06:48:58;;;;;;;50.03;18.33;;;;;;;;;;4876647;29;20393;-63
2023/12/09 06:51:24;;;;;;;54.80;16.03;;;;;;;;;;4876073;29;20052;-63
2023/12/09 06:53:50;;;;;;;41.77;15.87;;;;;;;;;;4877334;29;20049;-63
2023/12/09 06:56:20;;;;;;;51.60;18.30;;;;;;;;;;4876815;29;20071;-63
2023/12/09 06:58:46;;;;;;;41.00;15.40;;;;;;;;;;4877667;29;20059;-64
2023/12/09 07:01:21;;;;;;;40.27;15.40;;;;;;;;;;4876049;29;20041;-63
2023/12/09 07:03:48;;;;;;;48.83;16.23;;;;;;;;;;4876806;29;20089;-63
2023/12/09 07:06:16;;;;;;;42.73;15.87;;;;;;;;;;4877299;29;20060;-63
2023/12/09 07:08:43;;;;;;;52.47;17.37;;;;;;;;;;4876778;29;20076;-63
2023/12/09 07:11:09;;;;;;;46.90;15.40;;;;;;;;;;4875526;29;20092;-63
2023/12/09 07:13:35;;;;;;;39.60;13.43;;;;;;;;;;4877141;29;20067;-63
2023/12/09 07:16:03;;;;;;;53.37;13.57;;;;;;;;;;4875546;29;20053;-63
2023/12/09 07:18:29;;;;;;;42.13;14.43;;;;;;;;;;4876958;29;20500;-63
2023/12/09 07:20:55;;;;;;;44.47;13.07;;;;;;;;;;4876350;29;20060;-63
2023/12/09 07:23:21;;;;;;;42.47;13.60;;;;;;;;;;4876723;29;20061;-63
2023/12/09 07:25:47;;;;;;;32.37;12.77;;;;;;;;;;4875707;29;20141;-63
2023/12/09 07:28:13;;;;;;;46.10;12.47;;;;;;;;;;4875813;29;20515;-63
2023/12/09 07:30:39;;;;;;;38.60;12.27;;;;;;;;;;4876120;29;20060;-63
2023/12/09 07:33:05;;;;;;;37.37;11.13;;;;;;;;;;4874207;29;20113;-63
2023/12/09 07:35:31;;;;;;;43.87;11.27;;;;;;;;;;4875658;29;20416;-63
2023/12/09 07:37:57;;;;;;;29.67;10.20;;;;;;;;;;4872988;29;20045;-63
2023/12/09 07:40:23;;;;;;;26.83;10.13;;;;;;;;;;4875970;29;20492;-63
2023/12/09 07:42:49;;;;;;;32.53;10.33;;;;;;;;;;4875711;29;20094;-63
2023/12/09 07:45:15;;;;;;;32.63;10.47;;;;;;;;;;4875317;29;20123;-63
2023/12/09 07:47:41;;;;;;;39.50;9.70;;;;;;;;;;4876298;29;20056;-63
2023/12/09 07:50:07;;;;;;;39.93;10.27;;;;;;;;;;4875122;29;20045;-63
2023/12/09 07:52:33;;;;;;;32.43;8.67;;;;;;;;;;4873535;29;20055;-64
2023/12/09 07:54:59;;;;;;;33.37;8.67;;;;;;;;;;4876392;29;20057;-63
2023/12/09 07:57:25;;;;;;;30.50;9.50;;;;;;;;;;4875624;29;20045;-63
2023/12/09 07:59:51;;;;;;;29.57;8.67;;;;;;;;;;4876460;29;20102;-63
2023/12/09 08:02:17;;;;;;;32.97;8.23;;;;;;;;;;4875154;29;20072;-63
2023/12/09 08:04:43;;;;;;;29.70;9.10;;;;;;;;;;4876166;29;20049;-63
2023/12/09 08:07:09;;;;;;;32.17;7.30;;;;;;;;;;4872354;29;20079;-63
2023/12/09 08:09:35;;;;;;;34.13;8.13;;;;;;;;;;4875087;29;20037;-63
2023/12/09 08:12:01;;;;;;;27.83;7.93;;;;;;;;;;4875386;29;20037;-63
2023/12/09 08:14:27;;;;;;;27.97;8.17;;;;;;;;;;4875637;29;20049;-63
2023/12/09 08:16:53;;;;;;;26.53;7.97;;;;;;;;;;4874875;29;20058;-63
2023/12/09 08:19:19;;;;;;;23.80;7.93;;;;;;;;;;4875715;29;20041;-63
2023/12/09 08:21:45;;;;;;;31.27;8.33;;;;;;;;;;4873586;29;20041;-63
2023/12/09 08:24:11;;;;;;;23.50;6.37;;;;;;;;;;4875621;29;20057;-63
2023/12/09 08:26:37;;;;;;;31.40;7.90;;;;;;;;;;4874144;29;20049;-63
2023/12/09 08:29:08;;;;;;;27.03;6.43;;;;;;;;;;4875514;29;20407;-63
2023/12/09 08:31:34;;;;;;;24.37;6.47;;;;;;;;;;4874575;29;20076;-63
2023/12/09 08:34:00;;;;;;;24.37;7.47;;;;;;;;;;4873642;29;20516;-63
2023/12/09 08:36:26;;;;;;;32.13;7.43;;;;;;;;;;4870650;29;20056;-63
2023/12/09 08:38:52;;;;;;;23.33;7.27;;;;;;;;;;4873453;29;20053;-63
2023/12/09 08:41:18;;;;;;;27.07;6.70;;;;;;;;;;4874203;29;20512;-63
2023/12/09 08:43:44;;;;;;;27.20;5.67;;;;;;;;;;4873689;29;20052;-63
2023/12/09 08:46:10;;;;;;;27.00;5.27;;;;;;;;;;4873999;29;20045;-63
2023/12/09 08:48:36;;;;;;;32.37;6.97;;;;;;;;;;4875574;29;20397;-63
2023/12/09 08:51:03;;;;;;;28.77;5.67;;;;;;;;;;4874340;29;20080;-63
2023/12/09 08:53:29;;;;;;;23.43;5.43;;;;;;;;;;4874634;29;20055;-63
2023/12/09 08:55:55;;;;;;;30.93;5.50;;;;;;;;;;4874381;29;20041;-63
2023/12/09 08:58:21;;;;;;;17.97;5.40;;;;;;;;;;4873384;29;20493;-63
2023/12/09 09:00:47;;;;;;;26.80;6.10;;;;;;;;;;4874038;29;20056;-63
2023/12/09 09:03:13;;;;;;;21.73;5.60;;;;;;;;;;4874808;29;20049;-63
2023/12/09 09:05:39;;;;;;;25.87;5.80;;;;;;;;;;4874513;29;20165;-65
2023/12/09 09:08:05;;;;;;;20.57;5.63;;;;;;;;;;4874781;29;20547;-66
2023/12/09 09:10:31;;;;;;;24.30;8.20;;;;;;;;;;4873223;29;20052;-63
2023/12/09 09:12:57;;;;;;;20.37;4.33;;;;;;;;;;4873631;29;20049;-63
2023/12/09 09:15:24;;;;;;;18.67;4.70;;;;;;;;;;4874034;29;20473;-63
2023/12/09 09:17:50;;;;;;;24.17;4.80;;;;;;;;;;4872188;29;20135;-63
2023/12/09 09:20:16;;;;;;;20.00;5.40;;;;;;;;;;4874495;29;20072;-63
2023/12/09 09:22:42;;;;;;;22.10;5.07;;;;;;;;;;4874091;29;20500;-63
2023/12/09 09:25:09;;;;;;;11.90;4.03;;;;;;;;;;4873880;29;20113;-63
2023/12/09 09:27:35;;;;;;;18.33;3.83;;;;;;;;;;4874224;29;20136;-63
2023/12/09 09:30:01;;;;;;;19.27;4.33;;;;;;;;;;4873386;29;20037;-63
2023/12/09 09:32:27;;;;;;;18.47;4.50;;;;;;;;;;4874373;29;20049;-63
2023/12/09 09:34:53;;;;;;;21.37;4.63;;;;;;;;;;4874429;29;20051;-63
2023/12/09 09:37:20;;;;;;;17.90;4.40;;;;;;;;;;4873047;29;20045;-63
2023/12/09 09:39:47;;;;;;;20.10;4.10;;;;;;;;;;4874631;29;20113;-63
2023/12/09 09:42:19;;;;;;;26.13;5.53;;;;;;;;;;4872968;29;20140;-63
2023/12/09 09:44:50;;;;;;;15.53;5.70;;;;;;;;;;4873408;29;20061;-63
2023/12/09 09:47:17;;;;;;;12.03;3.60;;;;;;;;;;4871780;29;20044;-63
2023/12/09 09:49:45;;;;;;;13.53;4.30;;;;;;;;;;4873949;29;20055;-63
2023/12/09 09:52:13;;;;;;;14.60;3.73;;;;;;;;;;4871596;29;20524;-63
2023/12/09 09:54:39;;;;;;;18.67;3.47;;;;;;;;;;4871355;29;20151;-63
2023/12/09 09:57:07;;;;;;;18.53;3.70;;;;;;;;;;4873084;29;20048;-63
2023/12/09 09:59:33;;;;;;;17.47;4.50;;;;;;;;;;4874675;29;20113;-63
2023/12/09 10:02:00;;;;;;;14.93;3.67;;;;;;;;;;4876194;29;20045;-63
2023/12/09 10:04:26;;;;;;;14.73;3.40;;;;;;;;;;4876992;29;20459;-63
2023/12/09 10:06:53;;;;;;;19.27;4.00;;;;;;;;;;4878205;29;20081;-63
2023/12/09 10:09:19;;;;;;;13.53;3.63;;;;;;;;;;4877085;29;20049;-63
2023/12/09 10:11:45;;;;;;;12.23;2.70;;;;;;;;;;4877437;29;20048;-63
2023/12/09 10:14:11;;;;;;;17.13;3.60;;;;;;;;;;4876876;29;20166;-63
2023/12/09 10:16:38;;;;;;;20.83;4.03;;;;;;;;;;4861090;29;20409;-63
2023/12/09 10:19:08;;;;;;;15.60;3.87;;;;;;;;;;4877380;29;20156;-63
2023/12/09 10:21:34;;;;;;;14.47;3.53;;;;;;;;;;4877210;29;20057;-63
2023/12/09 10:24:00;;;;;;;18.63;4.63;;;;;;;;;;4876531;29;20072;-63
2023/12/09 10:26:26;;;;;;;17.60;4.17;;;;;;;;;;4872830;29;20492;-62
2023/12/09 10:28:52;;;;;;;13.97;3.63;;;;;;;;;;4876931;29;20085;-63
2023/12/09 10:31:18;;;;;;;15.07;3.60;;;;;;;;;;4877224;29;20049;-63
2023/12/09 10:33:45;;;;;;;16.97;3.10;;;;;;;;;;4876846;29;20162;-62
2023/12/09 10:36:11;;;;;;;21.33;3.97;;;;;;;;;;4877048;29;20041;-63
2023/12/09 10:38:46;;;;;;;13.50;3.87;;;;;;;;;;4876204;29;20057;-62
2023/12/09 10:41:13;;;;;;;19.17;2.93;;;;;;;;;;4876662;29;20045;-63
2023/12/09 10:43:40;;;;;;;11.53;4.23;;;;;;;;;;4876467;29;20516;-63
2023/12/09 10:46:06;;;;;;;13.33;3.77;;;;;;;;;;4876079;29;20082;-63
2023/12/09 10:48:32;;;;;;;14.10;3.60;;;;;;;;;;4875807;29;20049;-63
2023/12/09 10:50:58;;;;;;;13.37;2.60;;;;;;;;;;4875752;29;20412;-63
2023/12/09 10:53:24;;;;;;;14.47;3.30;;;;;;;;;;4877143;29;20056;-62
2023/12/09 10:55:51;;;;;;;12.63;2.93;;;;;;;;;;4875182;29;20053;-63
2023/12/09 10:58:17;;;;;;;14.30;3.93;;;;;;;;;;4877202;29;20057;-63
2023/12/09 11:00:43;;;;;;;15.37;3.37;;;;;;;;;;4876551;29;20431;-63
2023/12/09 11:03:09;;;;;;;15.07;4.03;;;;;;;;;;4876071;29;20060;-63
2023/12/09 11:05:42;;;;;;;14.80;3.50;;;;;;;;;;4876618;29;20041;-63
2023/12/09 11:08:10;;;;;;;18.38;4.07;;;;;;;;;;4875994;29;20045;-63
2023/12/09 11:10:36;;;;;;;14.93;4.17;;;;;;;;;;4875712;29;20408;-62
2023/12/09 11:13:03;;;;;;;16.00;3.50;;;;;;;;;;4875708;29;20045;-63
2023/12/09 11:15:32;;;;;;;15.47;3.27;;;;;;;;;;4876403;29;20045;-63
2023/12/09 11:18:08;;;;;;;10.83;3.30;;;;;;;;;;4876625;29;20064;-63
2023/12/09 11:20:36;;;;;;;20.37;4.00;;;;;;;;;;4876163;29;20061;-63
2023/12/09 11:23:04;;;;;;;12.27;4.00;;;;;;;;;;4876278;29;20523;-63
2023/12/09 11:25:30;;;;;;;14.47;3.30;;;;;;;;;;4875386;29;20393;-63
2023/12/09 11:27:58;;;;;;;13.63;3.60;;;;;;;;;;4876131;29;20049;-63
2023/12/09 11:30:30;;;;;;;12.70;3.13;;;;;;;;;;4876601;29;20576;-63
2023/12/09 11:32:56;;;;;;;16.43;4.20;;;;;;;;;;4875282;29;20060;-63
2023/12/09 11:35:23;;;;;;;14.20;3.80;;;;;;;;;;4875061;29;20068;-63
2023/12/09 11:37:50;;;;;;;11.07;4.60;;;;;;;;;;4875167;29;20056;-63
2023/12/09 11:40:16;;;;;;;14.37;4.13;;;;;;;;;;4875374;29;20052;-63
2023/12/09 11:42:42;;;;;;;13.40;3.80;;;;;;;;;;4875332;29;20412;-62
2023/12/09 11:45:09;;;;;;;14.13;4.03;;;;;;;;;;4875476;29;20048;-63
2023/12/09 11:47:37;;;;;;;11.83;3.93;;;;;;;;;;4875316;29;20140;-63
2023/12/09 11:50:03;;;;;;;13.73;3.87;;;;;;;;;;4875060;29;20097;-63
2023/12/09 11:52:29;;;;;;;13.47;3.70;;;;;;;;;;4876107;29;20049;-63
2023/12/09 11:55:04;;;;;;;12.33;3.20;;;;;;;;;;4871525;29;20163;-63
2023/12/09 11:57:30;;;;;;;13.33;3.23;;;;;;;;;;4872184;29;20507;-63
2023/12/09 11:59:56;;;;;;;12.47;2.73;;;;;;;;;;4874427;29;20041;-63
2023/12/09 12:02:22;;;;;;;13.53;3.23;;;;;;;;;;4875327;29;20460;-63
2023/12/09 12:04:48;;;;;;;12.23;3.53;;;;;;;;;;4875319;29;20105;-63
2023/12/09 12:07:14;;;;;;;15.00;4.10;;;;;;;;;;4875242;29;20045;-63
2023/12/09 12:09:40;;;;;;;11.17;2.80;;;;;;;;;;4875609;29;20171;-62
2023/12/09 12:12:07;;;;;;;12.07;2.90;;;;;;;;;;4875988;29;20167;-62
2023/12/09 12:14:33;;;;;;;13.57;4.17;;;;;;;;;;4873289;29;20099;-62
2023/12/09 12:16:59;;;;;;;14.07;3.47;;;;;;;;;;4874893;29;20064;-63
2023/12/09 12:19:25;;;;;;;9.77;2.93;;;;;;;;;;4874499;29;20429;-63
2023/12/09 12:21:53;;;;;;;12.83;2.93;;;;;;;;;;4875871;29;20082;-63
2023/12/09 12:24:19;;;;;;;14.90;3.00;;;;;;;;;;4874702;29;20423;-63
2023/12/09 12:26:45;;;;;;;13.20;3.47;;;;;;;;;;4874798;29;20049;-63
2023/12/09 12:29:17;;;;;;;12.53;3.37;;;;;;;;;;4874279;29;20472;-63
2023/12/09 12:31:43;;;;;;;13.07;3.10;;;;;;;;;;4873882;29;20076;-63
2023/12/09 12:34:18;;;;;;;10.40;2.80;;;;;;;;;;4875393;29;20087;-63
2023/12/09 12:36:48;;;;;;;10.67;3.07;;;;;;;;;;4873871;29;20051;-63
2023/12/09 12:39:14;;;;;;;11.90;3.07;;;;;;;;;;4873984;29;20049;-63
2023/12/09 12:41:41;;;;;;;11.90;3.10;;;;;;;;;;4875064;29;20140;-63
2023/12/09 12:44:07;;;;;;;10.97;2.73;;;;;;;;;;4872988;29;20139;-63
2023/12/09 12:46:33;;;;;;;14.70;2.57;;;;;;;;;;4875105;29;20076;-63
2023/12/09 12:48:59;;;;;;;11.20;2.60;;;;;;;;;;4873242;29;20053;-63
2023/12/09 12:51:25;;;;;;;13.20;4.40;;;;;;;;;;4874425;29;20084;-62
2023/12/09 12:53:52;;;;;;;8.13;2.40;;;;;;;;;;4873919;29;20550;-63
2023/12/09 12:56:18;;;;;;;12.27;3.67;;;;;;;;;;4874773;29;20095;-63
2023/12/09 12:58:44;;;;;;;10.73;2.60;;;;;;;;;;4874504;29;20044;-63
2023/12/09 13:01:10;;;;;;;17.67;2.90;;;;;;;;;;4874499;29;20049;-63
2023/12/09 13:03:36;;;;;;;11.57;3.63;;;;;;;;;;4873753;29;20049;-63
2023/12/09 13:06:04;;;;;;;9.87;2.30;;;;;;;;;;4874792;29;20421;-63
2023/12/09 13:08:31;;;;;;;16.03;2.80;;;;;;;;;;4872922;29;20059;-63
2023/12/09 13:10:57;;;;;;;11.47;2.53;;;;;;;;;;4874685;29;20059;-63
2023/12/09 13:13:23;;;;;;;9.30;2.60;;;;;;;;;;4872102;29;20033;-62
2023/12/09 13:15:50;;;;;;;14.10;2.70;;;;;;;;;;4874509;29;20040;-62
2023/12/09 13:18:17;;;;;;;10.50;2.80;;;;;;;;;;4873106;29;20091;-63
2023/12/09 13:20:45;;;;;;;17.77;3.43;;;;;;;;;;4874796;29;20063;-63
2023/12/09 13:23:11;;;;;;;14.37;3.37;;;;;;;;;;4873970;29;20057;-63
2023/12/09 13:25:37;;;;;;;19.20;3.00;;;;;;;;;;4874397;29;20064;-63
2023/12/09 13:28:03;;;;;;;15.37;3.53;;;;;;;;;;4873064;29;20040;-63
2023/12/09 13:30:29;;;;;;;18.70;4.00;;;;;;;;;;4874411;29;20060;-64
2023/12/09 13:33:01;;;;;;;14.07;4.27;;;;;;;;;;4873710;29;20134;-64
2023/12/09 13:35:28;;;;;;;15.70;3.60;;;;;;;;;;4874592;29;20109;-64
2023/12/09 13:37:54;;;;;;;11.33;3.60;;;;;;;;;;4873270;29;20108;-64
2023/12/09 13:40:21;;;;;;;17.40;5.10;;;;;;;;;;4874440;29;20072;-64
2023/12/09 13:42:48;;;;;;;12.10;3.63;;;;;;;;;;4873706;29;20563;-64
2023/12/09 13:45:14;;;;;;;14.07;3.20;;;;;;;;;;4873975;29;20192;-64
2023/12/09 13:47:40;;;;;;;17.67;4.90;;;;;;;;;;4873796;29;20606;-64
2023/12/09 13:50:07;;;;;;;12.73;3.60;;;;;;;;;;4871848;29;20045;-64
2023/12/09 13:52:36;;;;;;;14.27;4.57;;;;;;;;;;4874664;29;20041;-64
2023/12/09 13:55:03;;;;;;;19.67;3.90;;;;;;;;;;4873704;29;20113;-64
2023/12/09 13:57:29;;;;;;;18.30;3.97;;;;;;;;;;4874331;29;20053;-64
2023/12/09 13:59:55;;;;;;;22.10;4.80;;;;;;;;;;4873644;29;20812;-64
2023/12/09 14:02:22;;;;;;;18.50;4.20;;;;;;;;;;4874320;29;20052;-64
2023/12/09 14:04:48;;;;;;;13.13;3.30;;;;;;;;;;4873885;29;20419;-64
2023/12/09 14:07:15;;;;;;;20.97;4.17;;;;;;;;;;4873034;29;20056;-64
2023/12/09 14:09:41;;;;;;;17.33;3.40;;;;;;;;;;4873316;29;20053;-64
2023/12/09 14:12:07;;;;;;;19.43;4.87;;;;;;;;;;4874429;29;20071;-64
2023/12/09 14:14:33;;;;;;;15.17;3.77;;;;;;;;;;4871676;29;20041;-64
2023/12/09 14:16:59;;;;;;;15.57;3.40;;;;;;;;;;4873735;29;20041;-64
2023/12/09 14:19:27;;;;;;;13.73;4.10;;;;;;;;;;4873253;29;20048;-64